Time;durP1;ratioP1;P1;durP2;ratioP2;P2;SDS_P1;SDS_P2;PMS_P1;PMS_P2;Temp;Humidity;BMP_temperature;BMP_pressure;BME280_temperature;BME280_humidity;BME280_pressure;Samples;Min_cycle;Max_cycle;Signal;HPM_P1;HPM_P2
2021/05/10 00:01:01;;;;;;;2.37;1.80;;;15.60;99.70;;;;;;5011673;28;20507;-68
2021/05/10 00:03:28;;;;;;;2.57;1.73;;;15.50;99.70;;;;;;5010103;28;20473;-67
2021/05/10 00:05:55;;;;;;;2.73;1.80;;;15.50;99.70;;;;;;5011371;28;20952;-67
2021/05/10 00:08:22;;;;;;;2.40;2.00;;;15.60;99.70;;;;;;5011161;28;20449;-68
2021/05/10 00:10:49;;;;;;;3.47;1.93;;;15.70;99.70;;;;;;5011587;28;20449;-67
2021/05/10 00:13:18;;;;;;;3.20;1.87;;;15.80;99.70;;;;;;5026700;28;20480;-67
2021/05/10 00:15:45;;;;;;;3.80;1.93;;;15.90;99.70;;;;;;5030899;28;20814;-67
2021/05/10 00:18:12;;;;;;;2.50;1.70;;;15.90;99.70;;;;;;5030547;28;20473;-68
2021/05/10 00:20:41;;;;;;;4.93;2.10;;;15.80;99.70;;;;;;5030578;28;20985;-67
2021/05/10 00:23:08;;;;;;;2.17;1.60;;;15.90;99.70;;;;;;5030362;28;20521;-67
2021/05/10 00:25:34;;;;;;;2.20;1.57;;;16.00;99.70;;;;;;5030491;28;20997;-68
2021/05/10 00:28:00;;;;;;;3.43;1.67;;;16.00;99.70;;;;;;5029116;28;20444;-67
2021/05/10 00:30:27;;;;;;;4.57;2.00;;;15.90;99.70;;;;;;5030642;28;20456;-68
2021/05/10 00:32:54;;;;;;;3.67;1.93;;;15.90;99.70;;;;;;5030156;28;20863;-67
2021/05/10 00:35:22;;;;;;;2.37;1.80;;;15.80;99.70;;;;;;5030431;28;20445;-67
2021/05/10 00:37:48;;;;;;;3.67;2.00;;;15.80;99.70;;;;;;5030455;28;20492;-68
2021/05/10 00:40:16;;;;;;;2.47;1.80;;;15.70;99.70;;;;;;5030334;28;20936;-67
2021/05/10 00:42:43;;;;;;;2.50;1.70;;;16.00;98.20;;;;;;5030236;28;20499;-67
2021/05/10 00:45:10;;;;;;;2.43;1.70;;;15.90;99.70;;;;;;5028662;28;20970;-67
2021/05/10 00:47:38;;;;;;;2.77;1.90;;;15.90;99.70;;;;;;5030140;28;20463;-67
2021/05/10 00:50:06;;;;;;;3.70;2.00;;;15.90;99.70;;;;;;5030125;28;20951;-67
2021/05/10 00:52:33;;;;;;;2.53;1.57;;;15.80;99.70;;;;;;5029723;28;20478;-68
2021/05/10 00:54:59;;;;;;;3.77;1.77;;;15.70;99.70;;;;;;5030271;28;20444;-67
2021/05/10 00:57:28;;;;;;;2.30;1.60;;;15.70;99.70;;;;;;5029949;28;20479;-67
2021/05/10 00:59:55;;;;;;;2.37;1.67;;;15.70;99.70;;;;;;5030654;28;20445;-67
2021/05/10 01:02:21;;;;;;;2.37;1.60;;;15.70;99.50;;;;;;5013633;28;20506;-67
2021/05/10 01:04:48;;;;;;;3.93;2.10;;;15.70;99.70;;;;;;5009044;28;20456;-67
2021/05/10 01:07:14;;;;;;;2.70;1.90;;;15.50;99.70;;;;;;5011650;28;20445;-67
2021/05/10 01:09:41;;;;;;;3.40;2.00;;;15.50;99.70;;;;;;5010105;28;20438;-67
2021/05/10 01:12:07;;;;;;;3.47;1.90;;;15.40;99.70;;;;;;5010471;28;20446;-67
2021/05/10 01:14:34;;;;;;;3.10;2.00;;;15.30;99.70;;;;;;5009566;28;20841;-68
2021/05/10 01:17:01;;;;;;;2.30;1.70;;;15.40;99.70;;;;;;5010330;28;20964;-67
2021/05/10 01:19:27;;;;;;;3.30;2.00;;;15.40;99.70;;;;;;5028301;28;20452;-68
2021/05/10 01:21:57;;;;;;;3.23;1.70;;;15.40;99.20;;;;;;5026526;28;20448;-66
2021/05/10 01:24:25;;;;;;;5.97;2.13;;;15.40;99.70;;;;;;5024710;28;20983;-67
2021/05/10 01:26:52;;;;;;;3.53;2.17;;;15.30;99.70;;;;;;5024635;28;20453;-67
2021/05/10 01:29:19;;;;;;;4.33;2.10;;;15.20;99.70;;;;;;5024725;28;20463;-67
2021/05/10 01:31:45;;;;;;;3.00;2.07;;;15.10;99.70;;;;;;5025819;28;20452;-67
2021/05/10 01:34:11;;;;;;;3.00;2.03;;;15.10;99.70;;;;;;5026737;28;20484;-67
2021/05/10 01:36:38;;;;;;;2.50;1.80;;;15.00;99.70;;;;;;5029840;28;20502;-67
2021/05/10 01:39:05;;;;;;;2.60;1.73;;;15.00;99.70;;;;;;5029637;28;21010;-67
2021/05/10 01:41:32;;;;;;;2.80;2.00;;;15.20;99.70;;;;;;5030130;28;20445;-67
2021/05/10 01:43:58;;;;;;;3.83;2.00;;;15.30;99.70;;;;;;5029442;28;20475;-67
2021/05/10 01:46:24;;;;;;;3.07;1.80;;;15.30;99.70;;;;;;5030086;28;20444;-67
2021/05/10 01:48:51;;;;;;;3.00;1.90;;;15.20;99.70;;;;;;5029140;28;20447;-67
2021/05/10 01:51:22;;;;;;;3.73;2.10;;;15.10;99.70;;;;;;5021937;28;20450;-67
2021/05/10 01:53:49;;;;;;;2.80;2.03;;;14.90;99.70;;;;;;5009389;28;20493;-67
2021/05/10 01:56:15;;;;;;;3.37;1.80;;;14.70;99.70;;;;;;5010305;28;20453;-67
2021/05/10 01:58:42;;;;;;;5.47;2.20;;;14.60;99.70;;;;;;5010155;28;21085;-67
2021/05/10 02:01:08;;;;;;;2.90;1.90;;;14.60;99.70;;;;;;5009892;28;20452;-67
2021/05/10 02:03:34;;;;;;;2.70;1.73;;;14.70;99.70;;;;;;5009910;28;20815;-67
2021/05/10 02:06:02;;;;;;;4.03;1.90;;;14.70;99.70;;;;;;5009762;28;20500;-67
2021/05/10 02:08:28;;;;;;;4.40;1.97;;;14.80;99.70;;;;;;5025497;28;20445;-67
2021/05/10 02:10:55;;;;;;;2.23;1.70;;;14.70;99.70;;;;;;5029362;28;20444;-67
2021/05/10 02:13:23;;;;;;;2.57;1.80;;;14.70;99.70;;;;;;5029345;28;20464;-67
2021/05/10 02:15:51;;;;;;;3.60;1.70;;;14.70;99.70;;;;;;5029182;28;20451;-68
2021/05/10 02:18:19;;;;;;;3.10;1.73;;;14.70;99.70;;;;;;5029584;28;20480;-67
2021/05/10 02:20:46;;;;;;;3.93;1.80;;;14.80;99.70;;;;;;5029697;28;20502;-67
2021/05/10 02:23:14;;;;;;;2.80;1.60;;;14.90;99.70;;;;;;5027288;28;20462;-67
2021/05/10 02:25:42;;;;;;;2.10;1.77;;;15.00;99.70;;;;;;5029799;28;20499;-68
2021/05/10 02:28:10;;;;;;;3.00;1.83;;;15.20;97.80;;;;;;5032799;28;20441;-67
2021/05/10 02:30:38;;;;;;;3.33;1.70;;;15.30;95.80;;;;;;5033118;28;20444;-67
2021/05/10 02:33:08;;;;;;;2.67;1.80;;;15.30;97.90;;;;;;5032270;28;20476;-67
2021/05/10 02:35:34;;;;;;;2.30;1.77;;;15.30;98.30;;;;;;5032929;28;20448;-67
2021/05/10 02:38:01;;;;;;;3.40;1.70;;;15.20;98.10;;;;;;5032869;28;20480;-67
2021/05/10 02:40:27;;;;;;;2.53;1.53;;;15.20;97.30;;;;;;5030872;28;20453;-67
2021/05/10 02:42:53;;;;;;;2.57;1.80;;;15.20;98.90;;;;;;5032675;28;20476;-67
2021/05/10 02:45:21;;;;;;;2.50;1.70;;;15.20;98.40;;;;;;5032570;28;20455;-67
2021/05/10 02:47:48;;;;;;;4.97;2.07;;;15.20;99.70;;;;;;5032778;28;20444;-67
2021/05/10 02:50:18;;;;;;;3.00;1.80;;;15.30;95.90;;;;;;5032035;28;20456;-67
2021/05/10 02:52:44;;;;;;;3.13;2.00;;;15.30;97.20;;;;;;5032402;28;21022;-67
2021/05/10 02:55:11;;;;;;;2.70;1.90;;;15.30;98.10;;;;;;5032310;28;20452;-67
2021/05/10 02:57:37;;;;;;;2.53;1.70;;;15.30;99.50;;;;;;5030750;28;20499;-67
2021/05/10 03:00:05;;;;;;;2.77;1.70;;;15.20;99.50;;;;;;5032548;28;20447;-67
2021/05/10 03:02:31;;;;;;;3.10;1.87;;;15.20;99.20;;;;;;5031815;28;20444;-66
2021/05/10 03:04:57;;;;;;;3.47;2.20;;;15.20;99.70;;;;;;5032204;28;20440;-67
2021/05/10 03:07:24;;;;;;;3.10;1.83;;;15.20;98.10;;;;;;5032151;28;20440;-67
2021/05/10 03:09:50;;;;;;;2.43;1.73;;;15.20;99.70;;;;;;5032569;28;20451;-67
2021/05/10 03:12:17;;;;;;;2.73;1.80;;;15.20;98.30;;;;;;5032041;28;20452;-67
2021/05/10 03:14:43;;;;;;;3.00;2.00;;;15.20;98.50;;;;;;5030139;28;20456;-67
2021/05/10 03:17:09;;;;;;;2.90;1.60;;;15.20;99.20;;;;;;5032056;28;20444;-67
2021/05/10 03:19:36;;;;;;;2.73;1.80;;;15.10;99.70;;;;;;5032153;28;20449;-67
2021/05/10 03:22:02;;;;;;;2.00;1.50;;;15.10;99.70;;;;;;5031802;28;20449;-68
2021/05/10 03:24:29;;;;;;;4.00;1.80;;;14.80;99.70;;;;;;5031291;28;20468;-67
2021/05/10 03:26:55;;;;;;;2.40;1.80;;;14.80;99.70;;;;;;5031946;28;20460;-67
2021/05/10 03:29:21;;;;;;;2.57;1.77;;;14.80;99.70;;;;;;5030099;28;20996;-68
2021/05/10 03:31:48;;;;;;;3.60;2.10;;;14.80;99.70;;;;;;5031696;28;20456;-68
2021/05/10 03:34:14;;;;;;;3.93;1.93;;;14.90;99.50;;;;;;5031254;28;20904;-67
2021/05/10 03:36:40;;;;;;;4.00;2.20;;;15.10;97.70;;;;;;5031226;28;20480;-67
2021/05/10 03:39:06;;;;;;;3.50;2.10;;;15.00;99.10;;;;;;5030638;28;21111;-67
2021/05/10 03:41:33;;;;;;;3.00;1.97;;;15.00;99.70;;;;;;5031459;28;20453;-68
2021/05/10 03:44:00;;;;;;;3.90;1.93;;;14.90;99.70;;;;;;5031523;28;20471;-68
2021/05/10 03:46:27;;;;;;;2.47;1.73;;;14.90;99.70;;;;;;5029579;28;20449;-67
2021/05/10 03:48:53;;;;;;;4.40;2.10;;;15.00;99.70;;;;;;5031348;28;20433;-68
2021/05/10 03:51:19;;;;;;;3.03;2.13;;;15.00;99.70;;;;;;5031520;28;20502;-68
2021/05/10 03:53:46;;;;;;;3.03;1.90;;;15.00;99.70;;;;;;5031132;28;20473;-67
2021/05/10 03:56:12;;;;;;;2.90;1.97;;;15.00;99.70;;;;;;5031450;28;20437;-68
2021/05/10 03:58:40;;;;;;;4.40;2.37;;;14.90;99.70;;;;;;5018522;28;20492;-68
2021/05/10 04:01:07;;;;;;;3.10;1.73;;;15.00;99.70;;;;;;5011423;28;20504;-67
2021/05/10 04:03:37;;;;;;;2.63;1.90;;;14.90;99.70;;;;;;5010820;28;20465;-68
2021/05/10 04:06:18;;;;;;;3.90;2.10;;;14.80;99.70;;;;;;5011431;28;20971;-67
2021/05/10 04:09:08;;;;;;;3.43;1.73;;;14.80;99.70;;;;;;5011273;28;20480;-67
2021/05/10 04:14:15;;;;;;;3.60;2.27;;;14.90;99.70;;;;;;5029236;28;21009;-68
2021/05/10 04:16:41;;;;;;;4.47;2.30;;;14.90;99.70;;;;;;5030882;28;20444;-67
2021/05/10 04:19:08;;;;;;;3.80;2.23;;;14.90;99.70;;;;;;5031015;28;20663;-67
2021/05/10 04:21:34;;;;;;;4.03;2.13;;;14.90;99.70;;;;;;5030342;28;20441;-68
2021/05/10 04:24:00;;;;;;;2.93;2.00;;;14.90;99.70;;;;;;5030454;28;20479;-67
2021/05/10 04:26:26;;;;;;;3.87;2.30;;;15.00;99.70;;;;;;5030512;28;20448;-68
2021/05/10 04:28:52;;;;;;;2.87;1.90;;;15.00;99.70;;;;;;5021857;28;20532;-67
2021/05/10 04:31:19;;;;;;;4.40;2.20;;;15.10;99.70;;;;;;5010754;28;20450;-67
2021/05/10 04:33:46;;;;;;;2.90;1.90;;;15.10;99.70;;;;;;5010461;28;20477;-68
2021/05/10 04:36:12;;;;;;;3.37;2.00;;;15.10;99.70;;;;;;5010721;28;20508;-67
2021/05/10 04:38:42;;;;;;;4.50;2.10;;;15.10;99.70;;;;;;5010895;28;20485;-67
2021/05/10 04:41:08;;;;;;;2.80;2.27;;;15.10;99.70;;;;;;5012504;28;20481;-67
2021/05/10 04:43:34;;;;;;;6.20;2.10;;;15.40;99.30;;;;;;5010084;28;20462;-67
2021/05/10 04:46:00;;;;;;;2.90;1.77;;;15.70;97.60;;;;;;5011819;28;20450;-67
2021/05/10 04:48:27;;;;;;;5.03;2.10;;;15.80;95.80;;;;;;5009612;28;20491;-68
2021/05/10 04:50:54;;;;;;;2.83;1.87;;;16.00;94.80;;;;;;5010742;28;20442;-67
2021/05/10 04:53:20;;;;;;;3.17;1.70;;;15.90;96.50;;;;;;5010155;28;20928;-67
2021/05/10 04:55:46;;;;;;;4.27;1.97;;;15.80;97.70;;;;;;5010712;28;20449;-67
2021/05/10 04:58:13;;;;;;;2.53;2.10;;;15.80;96.60;;;;;;5010301;28;20485;-68
2021/05/10 05:00:39;;;;;;;3.30;1.90;;;15.80;96.60;;;;;;5011760;28;20475;-67
2021/05/10 05:03:06;;;;;;;2.70;2.00;;;15.90;97.20;;;;;;5010197;28;20473;-67
2021/05/10 05:05:33;;;;;;;2.90;2.10;;;16.00;98.80;;;;;;5010092;28;20441;-67
2021/05/10 05:07:59;;;;;;;5.20;2.43;;;15.90;99.70;;;;;;5010434;28;20500;-67
2021/05/10 05:10:26;;;;;;;3.20;1.93;;;15.80;99.70;;;;;;5010130;28;20446;-67
2021/05/10 05:12:52;;;;;;;4.73;2.07;;;15.90;99.20;;;;;;5009999;28;20473;-68
2021/05/10 05:15:20;;;;;;;4.33;2.30;;;15.90;99.70;;;;;;5010027;28;20445;-67
2021/05/10 05:17:46;;;;;;;2.47;1.60;;;15.90;99.70;;;;;;5015514;28;20476;-67
2021/05/10 05:20:13;;;;;;;4.00;2.10;;;16.00;99.60;;;;;;5029776;28;20498;-67
2021/05/10 05:22:40;;;;;;;3.00;2.10;;;16.20;97.90;;;;;;5029470;28;20768;-67
2021/05/10 05:25:08;;;;;;;5.63;2.20;;;16.20;98.10;;;;;;5030021;28;20444;-68
2021/05/10 05:27:35;;;;;;;2.20;1.60;;;16.20;98.40;;;;;;5029773;28;20452;-68
2021/05/10 05:30:01;;;;;;;3.07;1.90;;;16.20;98.40;;;;;;5030094;28;20444;-68
2021/05/10 05:32:28;;;;;;;3.27;2.00;;;16.20;98.50;;;;;;5029583;28;20444;-67
2021/05/10 05:34:54;;;;;;;2.47;1.90;;;16.20;98.80;;;;;;5027716;28;20460;-67
2021/05/10 05:37:20;;;;;;;3.20;2.00;;;16.20;98.80;;;;;;5030130;28;20819;-67
2021/05/10 05:39:47;;;;;;;2.00;1.60;;;16.20;99.00;;;;;;5029875;28;20456;-67
2021/05/10 05:42:13;;;;;;;5.27;2.00;;;16.20;99.70;;;;;;5030010;28;20817;-67
2021/05/10 05:44:44;;;;;;;2.77;1.60;;;16.30;99.20;;;;;;5029033;28;20489;-67
2021/05/10 05:47:15;;;;;;;2.43;1.90;;;16.40;99.20;;;;;;5029827;28;20940;-67
2021/05/10 05:49:42;;;;;;;2.80;1.97;;;16.50;99.70;;;;;;5029249;28;20475;-67
2021/05/10 05:52:08;;;;;;;3.50;2.03;;;16.50;99.70;;;;;;5027917;28;20445;-68
2021/05/10 05:54:34;;;;;;;3.63;1.90;;;16.60;99.70;;;;;;5028679;28;21002;-68
2021/05/10 05:57:01;;;;;;;3.00;1.87;;;16.70;97.90;;;;;;5029913;28;20559;-68
2021/05/10 05:59:29;;;;;;;2.43;1.87;;;16.90;96.60;;;;;;5029579;28;20472;-68
2021/05/10 06:01:55;;;;;;;3.13;2.10;;;16.90;97.90;;;;;;5032057;28;20859;-68
2021/05/10 06:04:22;;;;;;;4.57;2.30;;;17.00;97.00;;;;;;5033246;28;20467;-68
2021/05/10 06:06:48;;;;;;;3.50;2.03;;;17.10;96.30;;;;;;5033183;28;20505;-67
2021/05/10 06:09:14;;;;;;;3.30;1.70;;;17.20;96.10;;;;;;5016819;28;20464;-68
2021/05/10 06:11:41;;;;;;;2.47;1.87;;;17.20;96.50;;;;;;5013655;28;20448;-68
2021/05/10 06:14:08;;;;;;;4.10;2.03;;;17.20;96.70;;;;;;5011489;28;21003;-68
2021/05/10 06:16:34;;;;;;;3.10;2.37;;;17.10;96.50;;;;;;5009884;28;20465;-68
2021/05/10 06:19:00;;;;;;;3.80;2.10;;;17.20;96.80;;;;;;5011976;28;20481;-68
2021/05/10 06:21:27;;;;;;;2.53;1.93;;;17.20;96.80;;;;;;5011792;28;20442;-69
2021/05/10 06:23:53;;;;;;;2.00;1.60;;;17.10;98.80;;;;;;5011368;28;20874;-68
2021/05/10 06:26:19;;;;;;;2.63;1.97;;;17.30;97.70;;;;;;5011332;28;20441;-67
2021/05/10 06:28:46;;;;;;;2.30;1.80;;;17.70;95.30;;;;;;5012796;28;20438;-68
2021/05/10 06:31:13;;;;;;;3.10;1.93;;;18.10;97.30;;;;;;5013569;28;20448;-68
2021/05/10 06:33:39;;;;;;;3.40;2.00;;;18.20;95.90;;;;;;4994610;28;20490;-68
2021/05/10 06:36:06;;;;;;;7.17;2.00;;;18.40;96.80;;;;;;4993721;28;20450;-68
2021/05/10 06:38:33;;;;;;;2.70;1.90;;;18.50;93.30;;;;;;4993545;28;20478;-69
2021/05/10 06:41:00;;;;;;;2.53;1.70;;;18.50;96.90;;;;;;5013124;28;20850;-69
2021/05/10 06:43:26;;;;;;;2.87;1.80;;;18.40;95.50;;;;;;5014099;28;20468;-68
2021/05/10 06:45:52;;;;;;;2.23;1.80;;;18.70;95.20;;;;;;5012883;28;20457;-69
2021/05/10 06:48:26;;;;;;;3.63;2.33;;;18.90;93.60;;;;;;5014081;28;20445;-68
2021/05/10 06:50:53;;;;;;;4.90;2.70;;;18.90;94.90;;;;;;5013386;28;20441;-69
2021/05/10 06:53:19;;;;;;;4.10;2.83;;;18.70;95.20;;;;;;5012782;28;20473;-69
2021/05/10 06:55:45;;;;;;;7.90;3.17;;;18.70;94.60;;;;;;5012931;28;20449;-69
2021/05/10 06:58:12;;;;;;;6.77;3.10;;;18.60;94.70;;;;;;5027619;28;20546;-69
2021/05/10 07:00:38;;;;;;;4.00;2.67;;;18.50;95.60;;;;;;5032748;28;20453;-69
2021/05/10 07:03:04;;;;;;;8.30;3.00;;;18.60;95.50;;;;;;5027831;28;20973;-69
2021/05/10 07:05:31;;;;;;;4.40;2.83;;;18.80;94.40;;;;;;5012790;28;20453;-69
2021/05/10 07:07:57;;;;;;;5.17;2.90;;;18.60;95.30;;;;;;5012611;28;20454;-68
2021/05/10 07:10:24;;;;;;;5.37;2.80;;;18.70;95.70;;;;;;5012814;28;20472;-69
2021/05/10 07:12:50;;;;;;;6.60;2.93;;;18.70;95.50;;;;;;5010191;28;20466;-69
2021/05/10 07:15:17;;;;;;;7.60;2.80;;;18.80;95.70;;;;;;5012500;28;20434;-69
2021/05/10 07:17:43;;;;;;;3.30;2.60;;;18.80;94.60;;;;;;5012557;28;20829;-68
2021/05/10 07:20:10;;;;;;;7.30;2.93;;;18.70;93.50;;;;;;5012281;28;20511;-69
2021/05/10 07:22:37;;;;;;;4.00;2.57;;;18.90;94.00;;;;;;5012242;28;20465;-68
2021/05/10 07:25:04;;;;;;;4.53;2.60;;;18.90;94.40;;;;;;5012054;28;20445;-69
2021/05/10 07:27:30;;;;;;;6.40;2.87;;;18.90;93.60;;;;;;5012373;28;20442;-69
2021/05/10 07:29:56;;;;;;;4.13;2.50;;;18.80;91.90;;;;;;5018398;28;20449;-68
2021/05/10 07:32:22;;;;;;;6.37;3.07;;;19.00;91.00;;;;;;5012866;28;20516;-69
2021/05/10 07:34:49;;;;;;;6.47;2.80;;;19.00;92.90;;;;;;5011347;28;20460;-69
2021/05/10 07:37:15;;;;;;;4.03;3.03;;;19.30;91.20;;;;;;5011845;28;20450;-68
2021/05/10 07:39:42;;;;;;;5.53;2.70;;;19.70;90.70;;;;;;5029772;28;20626;-68
2021/05/10 07:42:08;;;;;;;4.50;2.20;;;20.10;88.80;;;;;;5030096;28;20448;-69
2021/05/10 07:44:34;;;;;;;3.33;2.23;;;20.10;87.80;;;;;;5011401;28;20465;-69
2021/05/10 07:47:00;;;;;;;4.80;2.90;;;20.00;87.60;;;;;;5011626;28;21007;-68
2021/05/10 07:49:26;;;;;;;8.13;2.67;;;20.00;90.10;;;;;;5010993;28;20467;-70
2021/05/10 07:51:53;;;;;;;3.40;2.10;;;20.00;90.20;;;;;;5011728;28;20449;-69
2021/05/10 07:54:19;;;;;;;4.13;2.20;;;20.00;89.70;;;;;;5008807;28;20477;-69
2021/05/10 07:56:46;;;;;;;3.43;2.00;;;20.10;89.30;;;;;;5009010;28;20492;-67
2021/05/10 07:59:12;;;;;;;2.40;1.90;;;20.20;89.00;;;;;;5005662;28;20501;-67
2021/05/10 08:01:39;;;;;;;3.23;2.00;;;20.30;88.90;;;;;;5011217;28;20461;-67
2021/05/10 08:04:05;;;;;;;2.43;1.80;;;20.30;89.40;;;;;;5010593;28;21004;-68
2021/05/10 08:06:32;;;;;;;3.20;2.00;;;20.20;90.30;;;;;;5011104;28;20438;-67
2021/05/10 08:08:58;;;;;;;2.50;1.90;;;20.10;90.10;;;;;;5011064;28;20500;-67
2021/05/10 08:11:25;;;;;;;3.37;2.43;;;19.80;91.00;;;;;;5012487;28;20974;-67
2021/05/10 08:13:52;;;;;;;4.83;1.97;;;19.70;91.60;;;;;;5030499;28;20468;-67
2021/05/10 08:16:19;;;;;;;2.20;1.70;;;19.60;92.40;;;;;;5029865;28;20457;-67
2021/05/10 08:18:45;;;;;;;4.33;2.00;;;19.50;92.70;;;;;;5026861;28;20481;-68
2021/05/10 08:21:11;;;;;;;3.33;2.00;;;19.60;93.50;;;;;;5009997;28;20450;-68
2021/05/10 08:23:37;;;;;;;3.00;1.87;;;19.80;92.10;;;;;;5010105;28;20469;-68
2021/05/10 08:26:04;;;;;;;2.53;1.87;;;19.80;93.10;;;;;;5011320;28;20836;-68
2021/05/10 08:28:31;;;;;;;2.40;1.80;;;20.00;92.70;;;;;;5010835;28;20492;-67
2021/05/10 08:30:59;;;;;;;3.67;2.00;;;20.40;91.90;;;;;;5016244;28;20446;-67
2021/05/10 08:33:25;;;;;;;2.67;1.80;;;20.40;92.10;;;;;;5009292;28;20469;-68
2021/05/10 08:35:51;;;;;;;2.50;1.70;;;20.30;91.10;;;;;;5009989;28;20450;-69
2021/05/10 08:38:17;;;;;;;3.37;1.80;;;20.30;91.90;;;;;;5010673;28;20496;-67
2021/05/10 08:40:44;;;;;;;3.03;1.90;;;20.40;92.10;;;;;;5010439;28;20453;-67
2021/05/10 08:43:18;;;;;;;2.83;1.80;;;20.20;92.30;;;;;;5009456;28;20457;-67
2021/05/10 08:45:46;;;;;;;2.63;1.80;;;20.30;93.30;;;;;;5012319;28;20467;-68
2021/05/10 08:48:14;;;;;;;2.03;1.67;;;20.30;92.10;;;;;;5008950;28;20783;-68
2021/05/10 08:50:40;;;;;;;2.93;1.80;;;20.30;92.80;;;;;;5007387;28;20824;-68
2021/05/10 08:53:06;;;;;;;2.47;1.90;;;20.50;93.70;;;;;;5009404;28;20858;-67
2021/05/10 08:55:32;;;;;;;3.30;2.07;;;20.90;92.00;;;;;;5004048;28;20462;-67
2021/05/10 08:57:58;;;;;;;3.33;2.00;;;21.00;92.00;;;;;;5010541;28;20459;-67
2021/05/10 09:00:25;;;;;;;2.60;1.70;;;21.00;91.90;;;;;;5028243;28;20456;-67
2021/05/10 09:03:07;;;;;;;2.90;1.83;;;21.10;91.50;;;;;;5026650;28;20768;-67
2021/05/10 09:05:46;;;;;;;2.67;1.93;;;21.00;91.70;;;;;;5027588;28;20454;-68
2021/05/10 09:08:12;;;;;;;4.57;2.10;;;21.10;91.80;;;;;;5029795;28;20498;-68
2021/05/10 09:10:38;;;;;;;4.50;2.00;;;20.90;91.00;;;;;;5027249;28;20503;-67
2021/05/10 09:13:04;;;;;;;2.67;1.80;;;21.00;92.90;;;;;;5029187;28;21053;-69
2021/05/10 09:15:34;;;;;;;6.33;2.00;;;21.20;93.00;;;;;;5025937;28;20841;-69
2021/05/10 09:18:03;;;;;;;2.57;1.90;;;21.20;91.50;;;;;;5010296;28;20461;-67
2021/05/10 09:20:31;;;;;;;4.83;2.10;;;21.10;91.30;;;;;;5009897;28;20858;-67
2021/05/10 09:22:59;;;;;;;2.70;1.90;;;20.90;91.10;;;;;;5010112;28;20494;-67
2021/05/10 09:25:32;;;;;;;2.77;1.90;;;21.20;91.90;;;;;;5009905;28;20446;-67
2021/05/10 09:28:12;;;;;;;3.50;1.90;;;21.20;91.80;;;;;;5027917;28;20453;-67
2021/05/10 09:30:42;;;;;;;2.83;2.00;;;21.10;91.70;;;;;;5028374;28;20797;-66
2021/05/10 09:33:15;;;;;;;3.30;1.70;;;21.30;91.10;;;;;;5002337;28;20494;-67
2021/05/10 09:35:42;;;;;;;3.30;2.00;;;21.40;91.50;;;;;;4992840;28;20454;-67
2021/05/10 09:38:09;;;;;;;5.27;2.27;;;21.10;91.30;;;;;;5006343;28;20484;-67
2021/05/10 09:40:45;;;;;;;2.63;1.70;;;21.10;91.70;;;;;;4994353;28;20461;-67
2021/05/10 09:43:13;;;;;;;2.30;2.00;;;21.10;91.90;;;;;;5010153;28;20533;-68
2021/05/10 09:45:46;;;;;;;2.63;1.70;;;21.50;91.40;;;;;;5033917;28;20827;-68
2021/05/10 09:48:26;;;;;;;2.73;1.80;;;21.90;89.60;;;;;;5032924;28;20535;-68
2021/05/10 09:50:54;;;;;;;3.40;1.80;;;22.50;89.00;;;;;;5006845;28;20449;-67
2021/05/10 09:53:33;;;;;;;2.80;1.70;;;23.00;88.60;;;;;;5013609;28;20476;-67
2021/05/10 09:56:00;;;;;;;3.00;1.80;;;23.50;86.80;;;;;;5014012;28;20537;-67
2021/05/10 09:58:37;;;;;;;2.67;1.90;;;23.50;85.80;;;;;;5013489;28;20481;-68
2021/05/10 10:01:04;;;;;;;4.50;2.00;;;23.20;85.60;;;;;;4994041;28;20968;-67
2021/05/10 10:03:35;;;;;;;2.60;1.80;;;23.30;87.30;;;;;;4997705;28;21011;-68
2021/05/10 10:06:03;;;;;;;2.60;1.70;;;23.00;85.60;;;;;;5012469;28;20514;-67
2021/05/10 10:08:31;;;;;;;2.70;1.90;;;22.60;88.40;;;;;;5012423;28;20445;-68
2021/05/10 10:10:58;;;;;;;4.83;2.10;;;22.30;87.70;;;;;;5012794;28;20449;-68
2021/05/10 10:13:25;;;;;;;6.37;2.40;;;22.30;88.60;;;;;;5012062;28;20465;-68
2021/05/10 10:15:51;;;;;;;4.33;2.00;;;22.00;88.10;;;;;;5012166;28;20460;-68
2021/05/10 10:18:19;;;;;;;3.23;1.83;;;21.50;89.20;;;;;;5009489;28;20917;-68
2021/05/10 10:20:47;;;;;;;3.30;1.70;;;21.40;90.00;;;;;;5013306;28;20464;-68
2021/05/10 10:23:15;;;;;;;2.53;1.70;;;21.40;90.50;;;;;;5012711;28;21014;-68
2021/05/10 10:25:42;;;;;;;2.20;1.57;;;21.20;90.50;;;;;;5013243;28;20448;-68
2021/05/10 10:28:09;;;;;;;2.10;1.43;;;21.00;90.60;;;;;;5011900;28;20456;-68
2021/05/10 10:30:42;;;;;;;2.10;1.70;;;21.00;90.40;;;;;;5011233;28;20437;-68
2021/05/10 10:33:12;;;;;;;2.37;1.53;;;20.90;90.80;;;;;;5024457;28;20468;-68
2021/05/10 10:35:43;;;;;;;2.37;1.60;;;21.00;90.90;;;;;;5015776;28;20802;-69
2021/05/10 10:38:10;;;;;;;2.10;1.53;;;21.10;90.30;;;;;;5011995;28;20539;-68
2021/05/10 10:40:36;;;;;;;1.97;1.33;;;21.20;89.20;;;;;;5011059;28;20945;-68
2021/05/10 10:43:23;;;;;;;2.53;1.57;;;21.20;89.80;;;;;;5011635;28;20473;-69
2021/05/10 10:46:25;;;;;;;2.33;1.40;;;20.90;89.30;;;;;;5012313;28;20442;-68
2021/05/10 10:48:52;;;;;;;1.60;1.30;;;20.80;89.30;;;;;;5009931;28;20519;-69
2021/05/10 10:51:19;;;;;;;2.57;1.33;;;21.00;90.00;;;;;;5008718;28;20439;-68
2021/05/10 10:53:47;;;;;;;1.67;1.30;;;20.90;90.30;;;;;;5012036;28;20995;-68
2021/05/10 10:56:14;;;;;;;1.93;1.37;;;20.80;89.80;;;;;;5012869;28;20449;-68
2021/05/10 10:58:43;;;;;;;1.60;1.33;;;20.80;90.20;;;;;;5030601;28;20499;-68
2021/05/10 11:01:20;;;;;;;2.00;1.40;;;20.80;90.40;;;;;;5032518;28;20555;-68
2021/05/10 11:03:47;;;;;;;2.27;1.60;;;20.80;90.20;;;;;;5032156;28;20479;-68
2021/05/10 11:06:14;;;;;;;1.77;1.23;;;20.90;90.10;;;;;;5030657;28;20457;-68
2021/05/10 11:08:45;;;;;;;1.60;1.27;;;20.70;90.30;;;;;;5032925;28;20815;-68
2021/05/10 11:11:34;;;;;;;2.47;1.20;;;20.60;90.30;;;;;;5032428;28;21025;-69
2021/05/10 11:14:01;;;;;;;1.90;1.10;;;20.50;91.40;;;;;;5031537;28;20473;-68
2021/05/10 11:16:43;;;;;;;1.73;1.30;;;20.40;91.80;;;;;;5032473;28;20457;-67
2021/05/10 11:19:28;;;;;;;4.60;1.40;;;20.20;91.90;;;;;;5016635;28;20492;-69
2021/05/10 11:21:54;;;;;;;1.80;1.20;;;20.00;93.20;;;;;;5020221;28;20455;-68
2021/05/10 11:24:26;;;;;;;1.80;1.20;;;20.00;92.50;;;;;;5031420;28;20460;-68
2021/05/10 11:26:53;;;;;;;2.10;1.40;;;20.10;93.70;;;;;;5014794;28;20468;-68
2021/05/10 11:29:45;;;;;;;3.50;1.80;;;20.10;92.80;;;;;;5012171;28;20441;-69
2021/05/10 11:32:32;;;;;;;2.73;1.50;;;20.00;93.20;;;;;;4994101;28;20545;-68
2021/05/10 11:35:26;;;;;;;2.37;1.40;;;19.90;93.50;;;;;;4992352;28;21016;-68
2021/05/10 11:38:01;;;;;;;1.77;1.30;;;19.80;94.70;;;;;;4992824;28;20461;-68
2021/05/10 11:40:27;;;;;;;2.20;1.40;;;19.90;94.20;;;;;;4992404;28;20446;-68
2021/05/10 11:42:53;;;;;;;2.20;1.50;;;19.80;95.00;;;;;;4992374;28;20469;-68
2021/05/10 11:45:20;;;;;;;2.63;1.50;;;20.00;95.90;;;;;;5024515;28;20522;-66
2021/05/10 11:47:48;;;;;;;2.63;1.40;;;20.00;94.50;;;;;;5031678;28;20440;-66
2021/05/10 11:50:14;;;;;;;2.53;1.50;;;20.00;93.50;;;;;;5031524;28;20449;-69
2021/05/10 11:52:40;;;;;;;3.60;1.40;;;19.90;94.40;;;;;;5020956;28;20453;-68
2021/05/10 11:55:07;;;;;;;1.87;1.30;;;19.90;93.60;;;;;;5010525;28;20453;-69
2021/05/10 11:57:36;;;;;;;1.80;1.30;;;19.90;93.70;;;;;;5014923;28;20448;-68
2021/05/10 12:00:12;;;;;;;1.97;1.33;;;20.00;93.50;;;;;;5031033;28;20485;-68
2021/05/10 12:02:40;;;;;;;1.50;1.20;;;19.80;91.60;;;;;;5023416;28;20484;-69
2021/05/10 12:05:09;;;;;;;1.90;1.30;;;19.80;92.80;;;;;;5007576;28;20441;-69
2021/05/10 12:07:36;;;;;;;1.70;1.10;;;19.80;91.90;;;;;;5011006;28;20951;-68
2021/05/10 12:10:04;;;;;;;1.60;1.20;;;19.80;92.00;;;;;;5008628;28;20442;-68
2021/05/10 12:12:32;;;;;;;1.40;1.10;;;19.80;90.80;;;;;;5010236;28;20471;-68
2021/05/10 12:15:07;;;;;;;1.50;1.10;;;19.70;90.40;;;;;;5010023;28;20449;-69
2021/05/10 12:17:33;;;;;;;1.60;1.40;;;19.80;90.30;;;;;;5007686;28;20536;-69
2021/05/10 12:20:10;;;;;;;2.10;1.40;;;19.70;91.30;;;;;;4990902;28;21071;-68
2021/05/10 12:22:39;;;;;;;2.10;1.23;;;19.70;91.30;;;;;;4991648;28;20466;-68
2021/05/10 12:25:28;;;;;;;1.47;1.07;;;19.60;90.80;;;;;;5002607;28;20450;-69
2021/05/10 12:28:02;;;;;;;1.67;1.20;;;19.40;91.70;;;;;;5008763;28;20473;-69
2021/05/10 12:30:30;;;;;;;1.70;1.20;;;19.60;91.60;;;;;;5017265;28;20460;-69
2021/05/10 12:32:59;;;;;;;2.00;1.50;;;19.40;91.90;;;;;;5008914;28;20532;-69
2021/05/10 12:35:27;;;;;;;2.70;1.50;;;19.50;91.80;;;;;;5005458;28;20833;-69
2021/05/10 12:37:55;;;;;;;1.40;1.20;;;19.50;91.60;;;;;;5007903;28;20469;-69
2021/05/10 12:40:23;;;;;;;1.57;1.20;;;19.50;92.10;;;;;;5007785;28;20532;-69
2021/05/10 12:43:12;;;;;;;2.07;1.30;;;19.30;91.70;;;;;;5007141;28;20461;-68
2021/05/10 12:45:40;;;;;;;1.87;1.30;;;19.30;93.00;;;;;;5004423;28;20484;-68
2021/05/10 12:48:19;;;;;;;2.03;1.30;;;19.30;91.00;;;;;;5006552;28;20507;-69
2021/05/10 12:50:48;;;;;;;2.43;1.20;;;19.30;91.20;;;;;;5010225;28;20503;-69
2021/05/10 12:53:15;;;;;;;2.00;1.20;;;19.40;91.10;;;;;;5010215;28;20469;-68
2021/05/10 12:55:42;;;;;;;1.57;1.10;;;19.40;90.40;;;;;;5009093;28;20446;-68